createdAt,value
2023-01-15T00:01:00.970Z,10.10
2023-01-15T00:04:07.009Z,8.93
2023-01-15T00:07:09.190Z,8.60
2023-01-15T00:10:12.455Z,8.35
2023-01-15T00:13:15.609Z,8.35
2023-01-15T00:16:21.770Z,7.25
2023-01-15T00:19:24.526Z,7.80
2023-01-15T00:22:32.062Z,7.28
2023-01-15T00:25:54.419Z,9.60
2023-01-15T00:28:56.454Z,8.18
2023-01-15T00:32:03.408Z,7.25
2023-01-15T00:35:06.885Z,6.72
2023-01-15T00:38:12.709Z,7.15
2023-01-15T00:41:17.068Z,6.85
2023-01-15T00:44:21.678Z,7.28
2023-01-15T00:47:24.129Z,8.13
2023-01-15T00:50:26.551Z,7.72
2023-01-15T00:53:29.987Z,8.55
2023-01-15T00:56:34.207Z,8.90
2023-01-15T00:59:36.772Z,7.50
2023-01-15T01:02:40.439Z,8.73
2023-01-15T01:05:43.460Z,8.40
2023-01-15T01:08:46.331Z,7.07
2023-01-15T01:11:50.680Z,8.90
2023-01-15T01:14:56.369Z,7.90
2023-01-15T01:17:59.501Z,7.65
2023-01-15T01:21:05.558Z,6.68
2023-01-15T01:24:08.366Z,6.53
2023-01-15T01:27:11.714Z,7.63
2023-01-15T01:30:15.283Z,7.30
2023-01-15T01:33:17.678Z,7.07
2023-01-15T01:36:23.556Z,7.82
2023-01-15T01:39:26.603Z,7.38
2023-01-15T01:42:30.737Z,7.53
2023-01-15T01:45:37.425Z,8.73
2023-01-15T01:48:40.947Z,7.10
2023-01-15T01:51:56.509Z,7.32
2023-01-15T01:55:02.157Z,6.95
2023-01-15T01:58:08.424Z,6.72
2023-01-15T02:01:10.783Z,6.75
2023-01-15T02:04:13.432Z,7.50
2023-01-15T02:07:17.641Z,6.35
2023-01-15T02:10:23.692Z,7.20
2023-01-15T02:13:39.499Z,7.53
2023-01-15T02:16:57.342Z,7.25
2023-01-15T02:20:29.744Z,7.03
2023-01-15T02:23:40.516Z,5.85
2023-01-15T02:26:55.511Z,6.57
2023-01-15T02:30:28.676Z,7.22
2023-01-15T02:33:38.743Z,7.40
2023-01-15T02:36:53.227Z,6.18
2023-01-15T02:40:02.384Z,6.70
2023-01-15T02:43:09.653Z,7.28
2023-01-15T02:46:16.577Z,6.43
2023-01-15T02:49:22.417Z,6.65
2023-01-15T02:52:30.214Z,6.85
2023-01-15T02:55:37.717Z,7.10
2023-01-15T02:58:42.612Z,7.55
2023-01-15T03:01:55.897Z,6.00
2023-01-15T03:05:12.004Z,6.25
2023-01-15T03:08:17.083Z,6.38
2023-01-15T03:11:20.669Z,5.85
2023-01-15T03:14:39.822Z,6.03
2023-01-15T03:17:54.072Z,6.75
2023-01-15T03:21:04.146Z,5.80
2023-01-15T03:24:08.682Z,6.63
2023-01-15T03:27:11.486Z,6.32
2023-01-15T03:30:19.612Z,5.78
2023-01-15T03:33:21.878Z,6.30
2023-01-15T03:36:24.971Z,6.40
2023-01-15T03:39:29.079Z,6.00
2023-01-15T03:43:13.883Z,6.95
2023-01-15T03:46:55.479Z,5.72
2023-01-15T03:50:25.691Z,6.38
2023-01-15T03:53:34.280Z,5.47
2023-01-15T03:56:44.252Z,5.22
2023-01-15T03:59:53.277Z,5.82
2023-01-15T04:02:57.768Z,5.32
2023-01-15T04:06:03.529Z,5.28
2023-01-15T04:09:10.809Z,5.85
2023-01-15T04:12:13.085Z,5.88
2023-01-15T04:15:19.847Z,6.75
2023-01-15T04:18:24.863Z,5.72
2023-01-15T04:21:27.065Z,5.75
2023-01-15T04:24:29.592Z,5.28
2023-01-15T04:27:32.040Z,5.35
2023-01-15T04:30:35.259Z,5.10
2023-01-15T04:33:37.549Z,5.60
2023-01-15T04:36:39.646Z,4.97
2023-01-15T04:39:41.858Z,6.10
2023-01-15T04:43:02.828Z,5.05
2023-01-15T04:46:05.354Z,6.22
2023-01-15T04:49:13.745Z,5.43
2023-01-15T04:52:17.181Z,6.93
2023-01-15T04:55:19.598Z,5.50
2023-01-15T04:58:21.778Z,6.25
2023-01-15T05:01:23.982Z,5.68
2023-01-15T05:04:26.273Z,5.38
2023-01-15T05:07:28.349Z,5.82
2023-01-15T05:10:32.633Z,5.72
2023-01-15T05:13:34.700Z,5.28
2023-01-15T05:16:39.670Z,5.68
2023-01-15T05:19:41.730Z,6.75
2023-01-15T05:22:43.806Z,5.28
2023-01-15T05:25:46.121Z,5.95
2023-01-15T05:28:50.338Z,7.00
2023-01-15T05:31:53.445Z,5.20
2023-01-15T05:34:55.778Z,6.43
2023-01-15T05:37:57.942Z,5.43
2023-01-15T05:41:03.567Z,6.00
2023-01-15T05:44:08.798Z,4.53
2023-01-15T05:47:11.142Z,5.25
2023-01-15T05:50:14.014Z,6.93
2023-01-15T05:53:16.563Z,6.72
2023-01-15T05:56:18.732Z,6.25
2023-01-15T05:59:23.621Z,5.70
2023-01-15T06:02:26.362Z,6.32
2023-01-15T06:05:28.663Z,6.15
2023-01-15T06:08:30.770Z,4.88
2023-01-15T06:11:32.934Z,6.53
2023-01-15T06:14:35.366Z,5.95
2023-01-15T06:17:37.551Z,5.72
2023-01-15T06:20:41.302Z,6.28
2023-01-15T06:23:45.009Z,5.18
2023-01-15T06:26:47.285Z,5.32
2023-01-15T06:29:49.531Z,4.80
2023-01-15T06:32:52.756Z,5.53
2023-01-15T06:35:54.767Z,3.75
2023-01-15T06:38:58.279Z,4.28
2023-01-15T06:42:21.496Z,3.45
2023-01-15T06:45:44.372Z,3.80
2023-01-15T06:48:47.617Z,5.63
2023-01-15T06:51:51.166Z,4.15
2023-01-15T06:54:53.327Z,4.30
2023-01-15T06:57:55.355Z,6.90
2023-01-15T07:00:58.780Z,5.10
2023-01-15T07:04:00.922Z,5.57
2023-01-15T07:07:04.149Z,5.45
2023-01-15T07:10:06.643Z,4.85
2023-01-15T07:13:11.360Z,4.28
2023-01-15T07:16:28.833Z,4.38
2023-01-15T07:19:31.049Z,3.90
2023-01-15T07:22:33.947Z,5.22
2023-01-15T07:25:39.225Z,3.95
2023-01-15T07:28:41.691Z,4.72
2023-01-15T07:31:44.239Z,4.85
2023-01-15T07:34:47.145Z,4.05
2023-01-15T07:37:53.027Z,4.15
2023-01-15T07:41:17.396Z,4.13
2023-01-15T07:44:38.007Z,4.05
2023-01-15T07:47:58.838Z,4.65
2023-01-15T07:51:01.622Z,3.47
2023-01-15T07:54:04.050Z,3.05
2023-01-15T07:57:10.474Z,4.80
2023-01-15T08:00:21.371Z,4.93
2023-01-15T08:03:23.438Z,3.42
2023-01-15T08:06:25.375Z,3.72
2023-01-15T08:09:28.487Z,4.13
2023-01-15T08:12:49.285Z,3.38
2023-01-15T08:15:52.332Z,3.10
2023-01-15T08:18:54.298Z,3.22
2023-01-15T08:22:01.564Z,3.28
2023-01-15T08:25:03.816Z,3.80
2023-01-15T08:28:05.918Z,3.30
2023-01-15T08:31:08.900Z,3.25
2023-01-15T08:34:13.272Z,3.30
2023-01-15T08:37:15.433Z,2.83
2023-01-15T08:40:17.922Z,5.50
2023-01-15T08:43:20.002Z,3.95
2023-01-15T08:46:22.069Z,2.95
2023-01-15T08:49:24.675Z,2.90
2023-01-15T08:52:26.800Z,3.92
2023-01-15T08:55:29.058Z,3.38
2023-01-15T08:58:33.219Z,3.25
2023-01-15T09:01:36.100Z,3.30
2023-01-15T09:04:40.898Z,3.55
2023-01-15T09:07:43.005Z,2.70
2023-01-15T09:10:45.878Z,2.83
2023-01-15T09:13:48.407Z,2.83
2023-01-15T09:16:52.122Z,3.33
2023-01-15T09:19:54.659Z,3.08
2023-01-15T09:22:56.722Z,3.15
2023-01-15T09:26:03.014Z,3.67
2023-01-15T09:29:09.084Z,3.53
2023-01-15T09:32:11.093Z,3.72
2023-01-15T09:35:13.297Z,3.20
2023-01-15T09:38:20.653Z,3.03
2023-01-15T09:41:43.005Z,3.17
2023-01-15T09:44:49.427Z,3.45
2023-01-15T09:48:18.719Z,3.35
2023-01-15T09:51:48.858Z,4.28
2023-01-15T09:55:05.221Z,4.90
2023-01-15T09:58:11.923Z,4.40
2023-01-15T10:01:18.975Z,4.40
2023-01-15T10:04:34.617Z,3.80
2023-01-15T10:07:43.637Z,3.25
2023-01-15T10:10:54.605Z,3.33
2023-01-15T10:14:06.222Z,5.13
2023-01-15T10:17:35.117Z,4.50
2023-01-15T10:20:55.099Z,3.97
2023-01-15T10:24:31.353Z,4.97
2023-01-15T10:27:33.674Z,5.85
2023-01-15T10:30:47.655Z,4.40
2023-01-15T10:34:04.716Z,4.70
2023-01-15T10:37:10.890Z,4.75
2023-01-15T10:40:33.706Z,5.72
2023-01-15T10:44:15.709Z,4.05
2023-01-15T10:50:26.521Z,2.80
2023-01-15T10:53:42.903Z,5.35
2023-01-15T10:57:02.686Z,4.90
2023-01-15T11:00:06.317Z,5.25
2023-01-15T11:03:18.475Z,5.05
2023-01-15T11:06:23.652Z,5.18
2023-01-15T11:09:35.944Z,6.53
2023-01-15T11:12:58.678Z,4.18
2023-01-15T11:16:19.479Z,4.88
2023-01-15T11:19:38.396Z,6.28
2023-01-15T11:22:40.618Z,5.20
2023-01-15T11:26:00.641Z,4.28
2023-01-15T11:29:14.739Z,5.13
2023-01-15T11:32:25.558Z,5.13
2023-01-15T11:35:27.711Z,6.60
2023-01-15T11:38:49.988Z,7.63
2023-01-15T11:42:17.688Z,7.30
2023-01-15T11:45:41.942Z,5.78
2023-01-15T11:49:06.441Z,6.13
2023-01-15T11:52:17.380Z,6.72
2023-01-15T11:55:22.992Z,5.72
2023-01-15T11:58:28.313Z,4.78
2023-01-15T12:01:37.865Z,5.47
2023-01-15T12:04:57.419Z,5.18
2023-01-15T12:08:03.475Z,6.30
2023-01-15T12:11:27.170Z,7.38
2023-01-15T12:14:39.758Z,5.78
2023-01-15T12:18:06.104Z,6.68
2023-01-15T12:21:16.857Z,6.53
2023-01-15T12:24:46.399Z,7.28
2023-01-15T12:28:00.956Z,6.65
2023-01-15T12:31:20.891Z,6.63
2023-01-15T12:34:28.878Z,7.28
2023-01-15T12:37:53.948Z,6.25
2023-01-15T12:41:02.119Z,5.55
2023-01-15T12:47:35.002Z,5.03
2023-01-15T12:50:44.931Z,6.47
2023-01-15T12:53:56.107Z,6.18
2023-01-15T12:57:06.618Z,6.53
2023-01-15T13:00:23.369Z,6.05
2023-01-15T13:03:31.980Z,4.97
2023-01-15T13:06:38.264Z,5.82
2023-01-15T13:09:48.403Z,5.78
2023-01-15T13:12:53.688Z,6.28
2023-01-15T13:16:20.876Z,4.97
2023-01-15T13:19:25.708Z,3.92
2023-01-15T13:22:31.469Z,5.10
2023-01-15T13:25:42.785Z,5.30
2023-01-15T13:29:04.594Z,6.18
2023-01-15T13:32:19.113Z,5.97
2023-01-15T13:35:30.028Z,5.40
2023-01-15T13:38:40.572Z,5.57
2023-01-15T13:42:01.254Z,6.47
2023-01-15T13:45:30.014Z,6.00
2023-01-15T13:48:40.888Z,4.88
2023-01-15T13:51:49.475Z,7.80
2023-01-15T13:54:53.227Z,5.97
2023-01-15T13:57:55.635Z,6.20
2023-01-15T14:01:19.815Z,7.32
2023-01-15T14:04:36.473Z,6.32
2023-01-15T14:07:38.849Z,5.70
2023-01-15T14:10:43.238Z,6.72
2023-01-15T14:13:55.023Z,6.32
2023-01-15T14:17:38.687Z,7.00
2023-01-15T14:21:34.989Z,6.70
2023-01-15T14:24:55.589Z,6.28
2023-01-15T14:28:30.673Z,5.72
2023-01-15T14:31:53.343Z,6.10
2023-01-15T14:34:58.715Z,3.92
2023-01-15T14:38:07.052Z,6.60
2023-01-15T14:41:09.197Z,6.60
2023-01-15T14:44:11.754Z,7.07
2023-01-15T14:47:26.621Z,7.70
2023-01-15T14:50:34.685Z,6.80
2023-01-15T14:53:43.444Z,7.90
2023-01-15T14:56:54.067Z,7.57
2023-01-15T15:00:04.565Z,8.10
2023-01-15T15:03:38.345Z,8.13
2023-01-15T15:06:59.302Z,7.20
2023-01-15T15:10:20.550Z,7.38
2023-01-15T15:13:34.268Z,7.97
2023-01-15T15:16:44.082Z,8.13
2023-01-15T15:19:56.278Z,7.05
2023-01-15T15:23:10.413Z,8.18
2023-01-15T15:26:26.258Z,9.15
2023-01-15T15:29:28.368Z,9.25
2023-01-15T15:32:30.786Z,9.05
2023-01-15T15:35:34.875Z,8.30
2023-01-15T15:38:43.292Z,9.48
2023-01-15T15:42:09.807Z,9.40
2023-01-15T15:46:10.687Z,8.60
2023-01-15T15:49:22.200Z,8.02
2023-01-15T15:52:29.264Z,10.52
2023-01-15T15:56:17.974Z,5.82
2023-01-15T16:02:44.429Z,7.95
2023-01-15T16:06:07.235Z,8.57
2023-01-15T16:09:10.083Z,8.73
2023-01-15T16:12:15.403Z,6.97
2023-01-15T16:15:24.052Z,8.40
2023-01-15T16:18:44.567Z,8.27
2023-01-15T16:21:52.934Z,8.38
2023-01-15T16:24:57.968Z,8.05
2023-01-15T16:28:04.420Z,8.52
2023-01-15T16:31:08.023Z,8.55
2023-01-15T16:34:29.581Z,7.47
2023-01-15T16:37:32.071Z,7.60
2023-01-15T16:40:40.706Z,8.10
2023-01-15T16:43:55.796Z,8.20
2023-01-15T16:47:01.748Z,9.98
2023-01-15T16:50:27.145Z,9.40
2023-01-15T16:53:38.222Z,9.80
2023-01-15T16:56:40.661Z,9.57
2023-01-15T16:59:45.972Z,9.45
2023-01-15T17:02:51.074Z,10.75
2023-01-15T17:06:06.325Z,11.40
2023-01-15T17:09:14.771Z,12.68
2023-01-15T17:12:46.041Z,8.95
2023-01-15T17:16:01.681Z,10.38
2023-01-15T17:19:08.021Z,11.23
2023-01-15T17:22:22.522Z,10.13
2023-01-15T17:25:28.416Z,10.45
2023-01-15T17:28:30.574Z,9.55
2023-01-15T17:31:36.411Z,10.85
2023-01-15T17:34:38.515Z,9.75
2023-01-15T17:37:40.997Z,8.98
2023-01-15T17:40:43.424Z,10.32
2023-01-15T17:43:46.107Z,8.50
2023-01-15T17:46:48.576Z,10.35
2023-01-15T17:49:50.956Z,10.50
2023-01-15T17:52:52.927Z,9.75
2023-01-15T17:56:13.884Z,11.52
2023-01-15T17:59:36.778Z,10.40
2023-01-15T18:02:58.159Z,10.18
2023-01-15T18:06:00.405Z,10.02
2023-01-15T18:09:06.182Z,10.40
2023-01-15T18:12:09.821Z,10.73
2023-01-15T18:15:12.964Z,10.95
2023-01-15T18:18:21.333Z,10.25
2023-01-15T18:21:26.817Z,9.20
2023-01-15T18:24:28.905Z,11.07
2023-01-15T18:27:32.019Z,10.65
2023-01-15T18:30:35.042Z,12.02
2023-01-15T18:33:40.887Z,10.75
2023-01-15T18:36:45.509Z,11.38
2023-01-15T18:39:47.544Z,10.52
2023-01-15T18:43:08.611Z,10.13
2023-01-15T18:46:30.557Z,10.70
2023-01-15T18:49:32.876Z,11.25
2023-01-15T18:52:51.525Z,11.18
2023-01-15T18:55:55.573Z,10.48
2023-01-15T18:58:57.720Z,10.55
2023-01-15T19:02:00.554Z,11.32
2023-01-15T19:05:02.937Z,11.93
2023-01-15T19:08:07.067Z,11.55
2023-01-15T19:11:32.024Z,11.77
2023-01-15T19:14:55.010Z,12.30
2023-01-15T19:18:15.841Z,11.25
2023-01-15T19:21:20.712Z,11.95
2023-01-15T19:24:30.509Z,11.50
2023-01-15T19:27:32.797Z,11.20
2023-01-15T19:30:38.934Z,11.27
2023-01-15T19:33:41.079Z,12.52
2023-01-15T19:36:43.235Z,10.80
2023-01-15T19:39:47.596Z,11.65
2023-01-15T19:43:14.186Z,12.88
2023-01-15T19:46:35.165Z,13.40
2023-01-15T19:49:56.774Z,13.95
2023-01-15T19:52:59.186Z,12.63
2023-01-15T19:56:03.597Z,14.10
2023-01-15T19:59:05.788Z,12.73
2023-01-15T20:02:07.851Z,12.10
2023-01-15T20:05:11.219Z,13.70
2023-01-15T20:08:17.803Z,12.57
2023-01-15T20:11:19.881Z,12.70
2023-01-15T20:14:23.528Z,12.75
2023-01-15T20:17:28.667Z,11.35
2023-01-15T20:20:31.192Z,12.98
2023-01-15T20:23:34.001Z,13.13
2023-01-15T20:26:36.069Z,13.57
2023-01-15T20:29:39.875Z,14.05
2023-01-15T20:32:44.966Z,14.98
2023-01-15T20:35:49.720Z,13.50
2023-01-15T20:38:51.856Z,14.27
2023-01-15T20:42:32.508Z,14.90
2023-01-15T20:45:35.792Z,13.02
2023-01-15T20:48:56.699Z,13.77
2023-01-15T20:51:58.771Z,12.90
2023-01-15T20:55:01.340Z,15.05
2023-01-15T20:58:04.953Z,15.38
2023-01-15T21:01:10.988Z,13.95
2023-01-15T21:04:14.010Z,14.75
2023-01-15T21:07:16.387Z,13.10
2023-01-15T21:10:19.105Z,13.23
2023-01-15T21:13:23.776Z,13.10
2023-01-15T21:16:25.861Z,12.95
2023-01-15T21:19:28.037Z,15.05
2023-01-15T21:22:31.101Z,13.25
2023-01-15T21:25:33.166Z,15.60
2023-01-15T21:28:35.326Z,13.23
2023-01-15T21:31:37.731Z,14.20
2023-01-15T21:34:39.936Z,16.60
2023-01-15T21:37:41.940Z,14.75
2023-01-15T21:40:44.545Z,14.23
2023-01-15T21:44:05.397Z,14.88
2023-01-15T21:47:11.989Z,16.00
2023-01-15T21:50:14.333Z,14.25
2023-01-15T21:53:16.429Z,14.70
2023-01-15T21:56:18.502Z,12.45
2023-01-15T21:59:22.584Z,14.68
2023-01-15T22:02:28.106Z,13.93
2023-01-15T22:05:30.184Z,15.35
2023-01-15T22:08:34.429Z,12.80
2023-01-15T22:11:43.857Z,12.88
2023-01-15T22:14:48.811Z,13.00
2023-01-15T22:17:54.527Z,12.95
2023-01-15T22:21:01.548Z,12.02
2023-01-15T22:24:05.053Z,13.80
2023-01-15T22:27:13.340Z,13.70
2023-01-15T22:30:35.536Z,12.63
2023-01-15T22:33:39.880Z,13.13
2023-01-15T22:36:44.021Z,14.27
2023-01-15T22:39:46.861Z,12.25
2023-01-15T22:42:48.938Z,13.35
2023-01-15T22:45:51.470Z,13.55
2023-01-15T22:48:55.528Z,13.82
2023-01-15T22:51:58.984Z,15.18
2023-01-15T22:55:01.572Z,14.73
2023-01-15T22:58:03.893Z,12.32
2023-01-15T23:01:08.617Z,14.95
2023-01-15T23:04:17.685Z,13.82
2023-01-15T23:07:19.873Z,13.52
2023-01-15T23:10:23.057Z,14.50
2023-01-15T23:13:29.997Z,14.52
2023-01-15T23:16:34.499Z,13.98
2023-01-15T23:19:37.770Z,13.50
2023-01-15T23:22:42.052Z,13.05
2023-01-15T23:25:44.194Z,12.77
2023-01-15T23:28:48.229Z,12.10
2023-01-15T23:31:50.285Z,14.40
2023-01-15T23:34:53.958Z,13.07
2023-01-15T23:37:57.115Z,13.88
2023-01-15T23:41:00.202Z,14.50
2023-01-15T23:44:20.976Z,15.23
2023-01-15T23:47:27.651Z,13.65
2023-01-15T23:50:29.808Z,15.30
2023-01-15T23:53:32.943Z,13.25
2023-01-15T23:56:36.102Z,14.25
2023-01-15T23:59:38.286Z,13.27
